aviador You're here:

UKLL Decoded Metar

LVOV in UKRAINE
Report Time2017-10-18 20:00:00
UTC Time2017-10-18 20:27:11
Flight Rules mvfr MVFR
WindVRB at 2 kt
Visibility5000 m
Phenomena:Mist
Clouds:N/A
Expected CloudBase > 800 ft AGL from Temp-Dew spread
CeilingNone
Temp11°C (ISA -2)
Dew Point09°C (88% RH)
AAT10.1°C
QNH1017 hPa
Density Alt866 ft
Elevation1,066 ft
Report Wrong Elevation
Raw Report
UKLL 182000Z VRB01MPS 5000 BR NSC 11/09 Q1017 R31/CLRD// NOSIG=

Extra information for UKLL:More info

Metar Taf Metar & Taf Last 4 Metars F.Rules Stats Wind Profile Meteogram Temp Stats Airport Information Weather charts Add Link Nearby VenuesMetar ALERT Operation Metar Decoded Social comments